首页
METAR-TAF:

METAR-TAF

机场 :

伊爾庫茨克, 俄罗斯

伊爾庫茨克國際機場

纬度: 52-16N, 经度: 104-19E, 海拔: 513米

当前天气观测

该预报发布于20分钟前的03:00 UTC
风速6节,风向,在北转西北北转东北之间变化
温度 -26°C
湿度 69%
气压 1033 hPa
能见度10公里或以上
阴天层高于3300英尺, 积雨云.
小阵雪

METAR: UIII 200300Z 35003MPS 330V030 9999 -SHSN OVC033CB M26/M30 Q1033 R30/490245 NOSIG RMK QFE729/0972

时间: 11:20 (03:20 UTC)

预报

该预报发布于1小时和20分钟前的02:00 UTC
预报有效从20日的 03点(UTC)到 21日的 03点(UTC)
风速14节,风向西转西北
能见度10公里或以上
多云层高于2000英尺, 积雨云.
低吹雪
短暂存在
从 20日的 03点(UTC)到 20日的 12点(UTC)
风速19节,风向西北,有时为29节阵风
能見度: 1200
阵雪, 高吹雪

TAF: UIII 200200Z 2003/2103 30007MPS 9999 DRSN BKN020CB TEMPO 2003/2012 32010G15MPS 1200 SHSN BLSN

超过4000个机场的气象观测和天气预报(METAR&TAF报告)。

可查询的气象台以黄色和红色小点在地图上表示。

将鼠标移到小点上方,可查看气象台名称。

然后点击查看天气观测和预报。

如需切换地图:点击带黑十字的绿色按钮放大地图;点击带横线的绿色按钮缩小地图;或者点击绿色箭头查看邻近地区的地图。


METAR-TAF: